Time;durP1;ratioP1;P1;durP2;ratioP2;P2;SDS_P1;SDS_P2;PMS_P1;PMS_P2;Temp;Humidity;BMP_temperature;BMP_pressure;BME280_temperature;BME280_humidity;BME280_pressure;Samples;Min_cycle;Max_cycle;Signal;HPM_P1;HPM_P2
2024/03/26 00:00:00;;;;;;;48.73;24.67;;;;;;;5.15;67.74;99352.53;5016450;28;96855;-77
2024/03/26 00:02:26;;;;;;;49.77;25.13;;;;;;;5.16;67.49;99359.44;5016368;28;97907;-77
2024/03/26 00:04:52;;;;;;;44.40;23.43;;;;;;;5.12;67.02;99353.47;5000892;27;97466;-77
2024/03/26 00:07:18;;;;;;;45.80;25.83;;;;;;;5.16;67.28;99352.47;5019895;27;96654;-77
2024/03/26 00:09:44;;;;;;;48.43;25.63;;;;;;;5.21;67.08;99354.97;5019571;27;96926;-77
2024/03/26 00:12:10;;;;;;;45.83;25.37;;;;;;;5.17;66.72;99348.97;5002104;27;99988;-77
2024/03/26 00:14:36;;;;;;;48.63;23.67;;;;;;;5.12;67.33;99355.19;5002607;27;101188;-80
2024/03/26 00:17:02;;;;;;;44.70;24.00;;;;;;;5.10;67.25;99349.19;5002874;27;96592;-76
2024/03/26 00:19:28;;;;;;;47.60;25.37;;;;;;;5.12;66.61;99350.88;5023092;27;96527;-77
2024/03/26 00:21:56;;;;;;;48.50;24.83;;;;;;;5.13;66.44;99357.78;5022769;27;97704;-76
2024/03/26 00:24:23;;;;;;;50.43;24.70;;;;;;;5.06;66.81;99356.25;5022640;27;101012;-76
2024/03/26 00:26:51;;;;;;;54.13;24.97;;;;;;;4.90;66.85;99341.94;5006423;27;96610;-77
2024/03/26 00:29:17;;;;;;;48.47;25.10;;;;;;;4.92;67.00;99360.97;5022836;27;96876;-77
2024/03/26 00:31:42;;;;;;;47.50;24.23;;;;;;;4.80;67.01;99341.31;5005787;27;101534;-76
2024/03/26 00:34:08;;;;;;;49.88;24.88;;;;;;;4.79;66.61;99344.81;5013474;27;101243;-76
2024/03/26 00:36:33;;;;;;;47.50;26.00;;;;;;;4.82;67.08;99344.72;5022086;27;96740;-76
2024/03/26 00:38:59;;;;;;;46.47;24.50;;;;;;;4.71;67.00;99339.81;5022548;27;96829;-76
2024/03/26 00:41:25;;;;;;;53.50;23.83;;;;;;;4.62;67.60;99336.56;5039407;27;97427;-77
2024/03/26 00:43:52;;;;;;;50.40;25.37;;;;;;;4.59;67.64;99344.47;5018735;28;101554;-77
2024/03/26 00:46:19;;;;;;;46.57;23.60;;;;;;;4.63;67.47;99340.91;5004712;27;96668;-78
2024/03/26 00:48:44;;;;;;;48.90;25.53;;;;;;;4.64;67.12;99340.00;5022583;27;96887;-77
2024/03/26 00:51:11;;;;;;;55.77;26.43;;;;;;;4.63;67.09;99346.09;5022072;27;99840;-77
2024/03/26 00:53:37;;;;;;;51.07;25.43;;;;;;;4.57;66.97;99341.03;5022923;27;97565;-77
2024/03/26 00:56:03;;;;;;;56.37;25.33;;;;;;;4.67;67.15;99360.72;5022480;27;96548;-77
2024/03/26 00:58:29;;;;;;;54.13;24.50;;;;;;;4.72;66.81;99348.47;5022335;27;96790;-76
2024/03/26 01:00:54;;;;;;;53.97;25.10;;;;;;;4.72;66.73;99349.31;5021789;27;101260;-80
2024/03/26 01:03:20;;;;;;;56.60;25.83;;;;;;;4.72;66.50;99351.06;5021308;27;101611;-77
2024/03/26 01:05:53;;;;;;;51.87;26.73;;;;;;;4.61;66.50;99345.28;5022268;27;96710;-75
2024/03/26 01:08:18;;;;;;;61.43;25.10;;;;;;;4.30;67.22;99322.63;5022331;27;97084;-77
2024/03/26 01:10:46;;;;;;;53.00;25.37;;;;;;;4.32;67.09;99329.50;5022703;27;97324;-76
2024/03/26 01:13:11;;;;;;;50.33;26.53;;;;;;;4.43;67.52;99349.19;5021296;27;100300;-76
2024/03/26 01:15:37;;;;;;;48.33;24.47;;;;;;;4.46;67.09;99349.97;5021574;27;96777;-77
2024/03/26 01:18:02;;;;;;;45.53;23.70;;;;;;;4.46;66.75;99341.31;5022629;27;96820;-77
2024/03/26 01:20:28;;;;;;;45.10;23.90;;;;;;;4.52;67.09;99347.22;5021909;27;101163;-77
2024/03/26 01:22:54;;;;;;;44.53;23.40;;;;;;;4.48;66.44;99344.72;5021612;27;100234;-76
2024/03/26 01:25:19;;;;;;;46.70;25.07;;;;;;;4.45;66.90;99347.38;5038532;27;96571;-76
2024/03/26 01:27:45;;;;;;;44.90;24.13;;;;;;;4.25;66.74;99334.91;5021999;27;96899;-77
2024/03/26 01:30:11;;;;;;;51.93;25.50;;;;;;;4.21;67.59;99339.28;5021638;27;97530;-77
2024/03/26 01:32:36;;;;;;;47.70;23.77;;;;;;;4.25;67.28;99333.16;5038607;27;97865;-78
2024/03/26 01:35:02;;;;;;;53.70;26.77;;;;;;;4.34;67.03;99341.63;5022185;27;96637;-77
2024/03/26 01:37:28;;;;;;;50.57;24.33;;;;;;;4.31;66.85;99330.41;5038526;27;96926;-77
2024/03/26 01:39:53;;;;;;;42.37;22.77;;;;;;;4.20;66.90;99331.56;5021651;27;97727;-77
2024/03/26 01:42:19;;;;;;;48.50;24.60;;;;;;;4.24;66.69;99334.03;5022012;27;97926;-77
2024/03/26 01:44:44;;;;;;;46.47;24.53;;;;;;;4.23;66.92;99342.72;5021925;27;96534;-76
2024/03/26 01:47:10;;;;;;;50.60;24.93;;;;;;;4.08;66.97;99324.91;5004903;27;97059;-77
2024/03/26 01:49:36;;;;;;;53.47;26.60;;;;;;;4.18;66.80;99325.53;5020783;27;101125;-77
2024/03/26 01:52:01;;;;;;;46.87;24.60;;;;;;;4.17;66.88;99322.09;5021625;27;98055;-77
2024/03/26 01:54:27;;;;;;;45.00;23.90;;;;;;;4.14;66.67;99326.50;5038375;27;96609;-78
2024/03/26 01:56:54;;;;;;;53.07;26.60;;;;;;;4.02;66.72;99320.72;5004975;27;96762;-79
2024/03/26 01:59:21;;;;;;;47.30;25.20;;;;;;;3.65;68.12;99331.06;5021410;27;98506;-77
2024/03/26 02:01:47;;;;;;;50.67;26.10;;;;;;;3.75;68.19;99324.78;5021014;27;101361;-79
2024/03/26 02:04:12;;;;;;;54.63;25.67;;;;;;;3.87;67.66;99313.28;5021027;27;96814;-77
2024/03/26 02:06:38;;;;;;;55.83;24.60;;;;;;;3.89;67.46;99321.88;5032942;28;96801;-76
2024/03/26 02:09:03;;;;;;;48.93;25.33;;;;;;;3.80;68.06;99317.72;5001728;27;101614;-77
2024/03/26 02:11:30;;;;;;;49.87;25.30;;;;;;;3.82;68.20;99317.72;5020980;27;101139;-77
2024/03/26 02:13:56;;;;;;;60.97;27.47;;;;;;;3.85;68.24;99317.66;5020950;27;96585;-77
2024/03/26 02:16:21;;;;;;;53.37;26.60;;;;;;;3.69;68.34;99308.47;5038451;27;96660;-77
2024/03/26 02:18:47;;;;;;;57.80;27.07;;;;;;;3.74;67.90;99310.09;5004426;27;101312;-81
2024/03/26 02:21:12;;;;;;;56.13;26.60;;;;;;;3.75;68.17;99308.34;5004331;27;100940;-79
2024/03/26 02:23:38;;;;;;;53.33;27.77;;;;;;;3.76;67.85;99299.69;5038195;27;96641;-77
2024/03/26 02:26:04;;;;;;;56.50;26.50;;;;;;;3.77;68.10;99307.41;5056427;27;96745;-77
2024/03/26 02:28:29;;;;;;;52.43;27.10;;;;;;;3.69;68.45;99304.13;5004224;27;101165;-77
2024/03/26 02:30:55;;;;;;;49.50;26.03;;;;;;;3.68;68.29;99309.38;5021173;27;101178;-77
2024/03/26 02:33:20;;;;;;;53.10;25.50;;;;;;;3.47;68.76;99303.75;5020956;27;96545;-77
2024/03/26 02:35:46;;;;;;;53.33;24.87;;;;;;;3.67;68.19;99313.72;5021256;27;96948;-77
2024/03/26 02:38:11;;;;;;;44.67;22.07;;;;;;;3.70;68.26;99312.81;5020389;27;97686;-77
2024/03/26 02:40:37;;;;;;;43.17;21.73;;;;;;;3.65;68.42;99315.47;5036472;27;97533;-77
2024/03/26 02:43:02;;;;;;;44.40;22.63;;;;;;;3.55;68.56;99304.47;5003789;27;96528;-78
2024/03/26 02:45:28;;;;;;;40.27;20.80;;;;;;;3.52;68.75;99295.88;5020654;27;96782;-77
2024/03/26 02:47:54;;;;;;;41.63;21.10;;;;;;;3.68;68.19;99306.78;5037642;27;97378;-77
2024/03/26 02:50:19;;;;;;;39.83;20.63;;;;;;;3.72;67.67;99285.91;5020518;27;101136;-77
2024/03/26 02:52:45;;;;;;;40.07;20.60;;;;;;;3.91;67.60;99293.28;5020863;27;96573;-77
2024/03/26 02:55:11;;;;;;;39.93;21.50;;;;;;;3.88;67.21;99295.97;5021061;27;96827;-77
2024/03/26 02:57:36;;;;;;;43.47;21.47;;;;;;;3.84;67.09;99296.03;5055567;27;97534;-77
2024/03/26 03:00:05;;;;;;;44.23;21.67;;;;;;;3.88;67.18;99299.41;5020770;27;97449;-77
2024/03/26 03:02:31;;;;;;;42.47;23.53;;;;;;;3.90;67.01;99291.56;5036995;27;96584;-77
2024/03/26 03:04:57;;;;;;;41.20;21.23;;;;;;;3.72;67.39;99285.91;5037124;27;96947;-77
2024/03/26 03:07:22;;;;;;;34.20;19.97;;;;;;;3.57;67.32;99270.66;5020179;27;101345;-78
2024/03/26 03:09:48;;;;;;;39.90;19.83;;;;;;;3.53;67.50;99272.50;5020180;27;100968;-77
2024/03/26 03:12:13;;;;;;;36.70;20.30;;;;;;;3.48;68.04;99278.66;5020533;27;96534;-77
2024/03/26 03:14:39;;;;;;;36.63;19.67;;;;;;;3.51;67.84;99283.78;5037191;27;96804;-77
2024/03/26 03:17:04;;;;;;;36.13;18.70;;;;;;;3.30;69.05;99293.75;5036944;27;97573;-78
2024/03/26 03:19:30;;;;;;;36.27;18.57;;;;;;;3.32;68.62;99288.53;5020413;27;101013;-77
2024/03/26 03:21:56;;;;;;;36.03;19.03;;;;;;;3.10;69.03;99268.22;5003801;27;96629;-77
2024/03/26 03:24:22;;;;;;;29.77;17.20;;;;;;;3.09;69.35;99263.91;5037641;27;96734;-77
2024/03/26 03:26:48;;;;;;;36.27;18.10;;;;;;;3.31;68.42;99290.25;5036508;27;97337;-78
2024/03/26 03:29:13;;;;;;;35.83;17.93;;;;;;;3.37;68.21;99290.16;5019915;27;101517;-77
2024/03/26 03:31:39;;;;;;;36.07;19.27;;;;;;;3.39;68.04;99284.91;5003474;27;96643;-77
2024/03/26 03:34:05;;;;;;;33.67;18.73;;;;;;;3.45;67.87;99279.59;5019939;27;96860;-78
2024/03/26 03:36:31;;;;;;;38.47;17.80;;;;;;;3.50;67.92;99285.53;5020058;27;97675;-77
2024/03/26 03:38:56;;;;;;;35.57;18.03;;;;;;;3.40;68.00;99291.78;5019668;27;101291;-77
2024/03/26 03:41:22;;;;;;;35.20;18.70;;;;;;;3.51;67.86;99286.38;5020055;27;96553;-77
2024/03/26 03:43:47;;;;;;;33.10;17.87;;;;;;;3.51;67.87;99283.78;5020284;27;96802;-81
2024/03/26 03:46:13;;;;;;;36.17;18.87;;;;;;;3.62;67.53;99289.59;5017937;27;101508;-77
2024/03/26 03:48:38;;;;;;;36.53;18.93;;;;;;;3.37;67.60;99255.53;5036332;27;101346;-77
2024/03/26 03:51:04;;;;;;;33.73;19.20;;;;;;;3.54;67.74;99288.91;5019614;27;96526;-77
2024/03/26 03:53:29;;;;;;;40.43;18.87;;;;;;;3.38;68.03;99288.41;5036593;27;96690;-77
2024/03/26 03:55:55;;;;;;;38.57;20.20;;;;;;;3.16;68.21;99280.19;5018905;27;101147;-77
2024/03/26 03:58:20;;;;;;;38.30;18.33;;;;;;;3.22;68.33;99284.41;5036136;27;101117;-77
2024/03/26 04:00:46;;;;;;;37.57;19.50;;;;;;;3.22;68.34;99269.69;5019520;27;96595;-77
2024/03/26 04:03:11;;;;;;;34.23;18.30;;;;;;;3.23;68.04;99271.41;5019444;27;96849;-77
2024/03/26 04:05:37;;;;;;;38.07;17.67;;;;;;;3.25;68.36;99284.34;5036058;27;101594;-77
2024/03/26 04:08:03;;;;;;;39.77;18.37;;;;;;;3.23;68.23;99280.91;5019650;27;101476;-79
2024/03/26 04:10:30;;;;;;;36.40;19.47;;;;;;;3.31;68.02;99279.88;5003162;27;96601;-77
2024/03/26 04:12:55;;;;;;;35.77;17.87;;;;;;;3.32;68.15;99273.81;5036271;27;96578;-77
2024/03/26 04:15:22;;;;;;;40.27;20.43;;;;;;;3.35;68.20;99280.69;5002034;27;101809;-77
2024/03/26 04:17:51;;;;;;;31.63;17.60;;;;;;;3.11;69.19;99276.84;5036061;27;97374;-79
2024/03/26 04:20:17;;;;;;;33.00;17.37;;;;;;;3.16;68.56;99275.84;5001766;27;96761;-77
2024/03/26 04:22:46;;;;;;;40.37;19.80;;;;;;;3.08;68.90;99271.72;5036290;27;96783;-77
2024/03/26 04:25:13;;;;;;;33.37;18.20;;;;;;;3.03;69.17;99277.00;5002428;27;101609;-77
2024/03/26 04:27:38;;;;;;;34.00;19.13;;;;;;;3.10;69.02;99275.13;5035669;27;97670;-77
2024/03/26 04:30:06;;;;;;;36.13;18.57;;;;;;;3.25;68.18;99280.00;5019175;27;96582;-77
2024/03/26 04:32:33;;;;;;;31.70;19.20;;;;;;;3.02;69.06;99284.81;5019820;27;96841;-76
2024/03/26 04:34:58;;;;;;;34.27;18.27;;;;;;;3.03;69.29;99283.94;5018809;27;101543;-77
2024/03/26 04:37:24;;;;;;;39.00;19.20;;;;;;;2.86;69.06;99264.38;5017020;27;100312;-77
2024/03/26 04:39:49;;;;;;;36.23;19.60;;;;;;;3.01;69.09;99281.34;5035686;27;96528;-77
2024/03/26 04:42:15;;;;;;;37.00;19.50;;;;;;;3.11;68.94;99277.72;5001988;27;97019;-77
2024/03/26 04:44:40;;;;;;;29.80;18.33;;;;;;;3.28;68.73;99276.50;5018811;27;101302;-77
2024/03/26 04:47:06;;;;;;;36.90;19.57;;;;;;;3.13;68.38;99273.31;5017538;27;101748;-77
2024/03/26 04:49:31;;;;;;;36.53;17.97;;;;;;;3.21;68.19;99270.59;5018947;27;96586;-77
2024/03/26 04:51:57;;;;;;;31.83;18.70;;;;;;;3.10;68.90;99273.38;5010212;27;97061;-77
2024/03/26 04:54:22;;;;;;;33.07;18.67;;;;;;;3.12;68.92;99263.00;5018783;27;101121;-77
2024/03/26 04:56:48;;;;;;;37.63;20.87;;;;;;;2.69;69.58;99241.38;5018955;27;100969;-76
2024/03/26 04:59:13;;;;;;;34.17;19.90;;;;;;;2.97;69.64;99281.44;5054364;27;96441;-78
2024/03/26 05:01:39;;;;;;;40.47;21.40;;;;;;;3.04;69.55;99286.47;5002140;27;96983;-77
2024/03/26 05:04:04;;;;;;;40.33;20.70;;;;;;;3.02;69.56;99272.69;5034856;27;97370;-80
2024/03/26 05:06:30;;;;;;;35.10;19.77;;;;;;;3.06;69.91;99283.88;5021391;27;101634;-78
2024/03/26 05:08:55;;;;;;;41.23;21.13;;;;;;;3.08;70.06;99275.16;5005561;27;96567;-77
2024/03/26 05:11:21;;;;;;;42.97;20.77;;;;;;;2.97;69.96;99271.06;5022377;27;96871;-77
2024/03/26 05:13:47;;;;;;;35.73;19.60;;;;;;;3.05;70.34;99264.84;5021844;27;100712;-77
2024/03/26 05:16:12;;;;;;;32.90;18.83;;;;;;;3.49;69.27;99278.66;5038947;27;97491;-77
2024/03/26 05:18:38;;;;;;;35.30;19.13;;;;;;;3.43;69.67;99286.53;5038921;27;96570;-77
2024/03/26 05:21:04;;;;;;;34.10;19.13;;;;;;;3.18;70.35;99273.25;5005762;27;96810;-78
2024/03/26 05:23:29;;;;;;;38.60;20.23;;;;;;;3.20;70.60;99284.44;5038481;27;101015;-78
2024/03/26 05:25:55;;;;;;;34.03;20.07;;;;;;;3.52;69.72;99276.00;5021873;27;100855;-77
2024/03/26 05:28:20;;;;;;;34.07;18.63;;;;;;;3.77;68.75;99249.47;5021771;27;96556;-77
2024/03/26 05:30:46;;;;;;;33.70;18.90;;;;;;;4.23;67.68;99266.53;5057282;27;96742;-77
2024/03/26 05:33:12;;;;;;;31.27;18.63;;;;;;;4.40;67.04;99253.13;5021805;27;97546;-77
2024/03/26 05:35:37;;;;;;;31.90;18.30;;;;;;;4.46;66.54;99253.81;5021472;27;101285;-80
2024/03/26 05:38:03;;;;;;;37.90;19.07;;;;;;;4.49;67.02;99269.31;5021992;27;96533;-77
2024/03/26 05:40:28;;;;;;;32.67;19.88;;;;;;;4.94;65.95;99250.75;5021621;27;96566;-79
2024/03/26 05:42:54;;;;;;;33.50;18.10;;;;;;;5.09;65.27;99241.69;5021510;27;101468;-86
2024/03/26 05:45:20;;;;;;;28.17;17.77;;;;;;;5.50;64.38;99252.63;5039059;27;97543;-85
2024/03/26 05:47:45;;;;;;;30.95;18.45;;;;;;;6.02;62.95;99265.78;5039145;27;96617;-86
2024/03/26 05:50:11;;;;;;;29.17;17.50;;;;;;;6.05;62.08;99260.47;5021966;27;96972;-86
2024/03/26 05:52:37;;;;;;;29.60;16.40;;;;;;;6.18;61.94;99263.56;5021189;27;102120;-85
2024/03/26 05:55:03;;;;;;;29.27;16.30;;;;;;;6.48;61.09;99259.91;5021627;27;99680;-84
2024/03/26 05:57:28;;;;;;;25.73;15.70;;;;;;;6.42;60.68;99248.84;5022066;27;96576;-83
2024/03/26 05:59:54;;;;;;;27.23;15.88;;;;;;;6.67;60.48;99244.50;5038861;27;96893;-86
2024/03/26 06:02:19;;;;;;;27.85;15.65;;;;;;;7.03;59.17;99249.28;5021356;27;101393;-82
2024/03/26 06:04:45;;;;;;;27.80;17.02;;;;;;;7.76;58.24;99247.41;5004279;28;101810;-96
2024/03/26 06:07:11;;;;;;;28.63;16.17;;;;;;;8.04;56.69;99239.31;5002704;28;96661;-94
2024/03/26 06:09:37;;;;;;;28.95;17.27;;;;;;;8.34;55.92;99245.03;4985956;28;96574;-80
2024/03/26 06:12:02;;;;;;;29.38;16.00;;;;;;;7.79;56.71;99247.28;4984499;28;101121;-83
2024/03/26 06:14:28;;;;;;;26.30;15.77;;;;;;;9.20;55.02;99252.66;5001403;28;101119;-85
2024/03/26 06:16:53;;;;;;;29.35;15.85;;;;;;;10.26;52.12;99249.41;5001029;28;96552;-87
2024/03/26 06:19:19;;;;;;;23.63;15.13;;;;;;;11.22;49.82;99230.44;4984428;28;96952;-81
2024/03/26 06:21:44;;;;;;;24.35;14.88;;;;;;;11.53;48.43;99235.75;5017701;28;98532;-82
2024/03/26 06:24:10;;;;;;;31.17;15.32;;;;;;;12.03;47.32;99230.38;5017913;28;98016;-82
2024/03/26 06:26:36;;;;;;;26.55;14.88;;;;;;;12.32;46.33;99237.44;5000683;28;96727;-84
2024/03/26 06:29:02;;;;;;;26.35;14.45;;;;;;;12.50;45.34;99216.25;5017915;28;96856;-85
2024/03/26 06:31:28;;;;;;;27.25;15.30;;;;;;;13.87;44.41;99225.28;5000512;28;101425;-83
2024/03/26 06:33:53;;;;;;;20.95;12.75;;;;;;;13.43;44.71;99230.78;5000933;28;101371;-83
2024/03/26 06:36:19;;;;;;;26.50;14.55;;;;;;;13.55;44.12;99224.72;5001205;28;96567;-84
2024/03/26 06:38:44;;;;;;;21.52;12.45;;;;;;;13.06;45.18;99218.09;5001268;28;96879;-81
2024/03/26 06:41:10;;;;;;;23.67;14.10;;;;;;;13.47;44.37;99225.22;5000130;28;98087;-84
2024/03/26 06:43:35;;;;;;;25.95;14.07;;;;;;;14.11;43.32;99209.66;4983440;28;101923;-85
2024/03/26 06:46:02;;;;;;;23.80;14.38;;;;;;;14.39;42.53;99197.25;5000621;28;96538;-83
2024/03/26 06:48:28;;;;;;;23.92;14.40;;;;;;;14.35;42.90;99207.19;4984082;28;96819;-85
2024/03/26 06:50:53;;;;;;;25.90;14.90;;;;;;;14.25;42.63;99190.25;5000405;28;101689;-86
2024/03/26 06:53:19;;;;;;;25.58;14.95;;;;;;;14.29;42.34;99190.91;5000626;28;100957;-85
2024/03/26 06:55:44;;;;;;;24.75;14.63;;;;;;;14.21;42.96;99192.25;5017334;28;96522;-85
2024/03/26 06:58:10;;;;;;;22.35;15.02;;;;;;;14.97;41.58;99206.50;5001227;28;96851;-85
2024/03/26 07:00:36;;;;;;;25.65;15.40;;;;;;;16.35;39.45;99190.34;4999912;28;101826;-85
2024/03/26 07:03:01;;;;;;;24.98;14.25;;;;;;;17.77;36.72;99184.47;5002597;27;101154;-83
2024/03/26 07:05:27;;;;;;;20.55;14.02;;;;;;;17.97;36.07;99184.66;5018958;27;96504;-86
2024/03/26 07:07:52;;;;;;;22.05;15.20;;;;;;;19.14;34.75;99176.50;5037400;27;96834;-84
2024/03/26 07:10:18;;;;;;;25.17;15.60;;;;;;;21.97;31.06;99166.16;5019456;27;101614;-83
2024/03/26 07:12:43;;;;;;;25.58;15.40;;;;;;;21.27;30.88;99188.06;5019843;27;101421;-84
2024/03/26 07:15:10;;;;;;;26.38;15.10;;;;;;;24.79;27.11;99172.09;5019715;27;96590;-83
2024/03/26 07:17:38;;;;;;;21.77;15.38;;;;;;;24.40;27.17;99164.75;5003554;27;96816;-84
2024/03/26 07:20:05;;;;;;;21.30;15.40;;;;;;;25.29;25.64;99151.31;5003268;27;101740;-84
2024/03/26 07:22:30;;;;;;;26.25;14.73;;;;;;;27.82;23.51;99156.19;5036985;27;99126;-84
2024/03/26 07:24:56;;;;;;;25.80;14.32;;;;;;;28.56;22.46;99146.88;5036905;27;96565;-84
2024/03/26 07:27:22;;;;;;;19.75;14.27;;;;;;;27.43;23.65;99159.22;5018848;27;96988;-84
2024/03/26 07:29:47;;;;;;;19.90;14.90;;;;;;;25.65;24.70;99145.41;5018771;27;102092;-83
2024/03/26 07:32:14;;;;;;;20.08;14.43;;;;;;;25.92;24.09;99161.06;5019570;27;101441;-84
2024/03/26 07:34:39;;;;;;;18.20;13.88;;;;;;;30.07;20.97;99136.13;5002997;27;96698;-85
2024/03/26 07:37:05;;;;;;;20.85;13.32;;;;;;;28.19;22.28;99144.31;5002681;27;97017;-84
2024/03/26 07:39:30;;;;;;;18.17;13.10;;;;;;;30.11;20.67;99129.28;5036610;27;97451;-84
2024/03/26 07:41:57;;;;;;;23.40;13.55;;;;;;;29.77;20.88;99139.19;5019750;27;98174;-84
2024/03/26 07:44:22;;;;;;;19.30;13.02;;;;;;;29.82;20.50;99138.56;5002985;27;96583;-86
2024/03/26 07:46:48;;;;;;;15.63;12.55;;;;;;;32.23;19.04;99130.41;5020296;27;96835;-92
2024/03/26 07:49:13;;;;;;;20.13;13.70;;;;;;;33.57;18.05;99120.66;5019188;27;101533;-86
2024/03/26 07:51:39;;;;;;;20.27;12.75;;;;;;;31.08;19.31;99125.00;5019667;27;98067;-85
2024/03/26 07:54:05;;;;;;;18.77;13.00;;;;;;;31.51;18.84;99119.84;5002283;27;96549;-85
2024/03/26 07:56:31;;;;;;;15.15;12.30;;;;;;;32.19;18.86;99118.34;5036791;27;96822;-83
2024/03/26 07:58:57;;;;;;;14.80;11.63;;;;;;;32.45;18.20;99099.13;5036451;27;97811;-83
2024/03/26 08:01:22;;;;;;;16.63;12.52;;;;;;;30.84;19.10;99097.56;5019179;27;100729;-83
2024/03/26 08:03:48;;;;;;;14.90;12.18;;;;;;;30.26;19.47;99102.84;5002182;27;96621;-86
2024/03/26 08:06:13;;;;;;;17.35;12.00;;;;;;;31.07;19.41;99082.72;5018952;27;97044;-85
2024/03/26 08:08:39;;;;;;;17.85;11.63;;;;;;;32.24;17.98;99084.06;5019194;27;97446;-85
2024/03/26 08:11:04;;;;;;;15.88;11.43;;;;;;;34.02;16.73;99089.44;5019556;27;97915;-85
2024/03/26 08:13:29;;;;;;;13.32;10.80;;;;;;;35.93;16.12;99079.56;5002258;27;96636;-85
2024/03/26 08:15:55;;;;;;;13.98;11.27;;;;;;;34.76;16.60;99059.84;5019232;27;96798;-85
2024/03/26 08:18:21;;;;;;;16.60;11.90;;;;;;;35.53;15.79;99067.66;5001601;27;101665;-85
2024/03/26 08:20:46;;;;;;;28.35;25.83;;;;;;;35.82;15.91;99076.66;5054177;27;97416;-85
2024/03/26 08:23:12;;;;;;;30.35;27.90;;;;;;;34.64;16.15;99067.22;5019052;27;96569;-84
2024/03/26 08:25:38;;;;;;;30.60;28.20;;;;;;;31.21;18.57;99086.16;5002074;27;96903;-84
2024/03/26 08:28:03;;;;;;;28.20;26.02;;;;;;;33.35;17.49;99059.66;5019067;27;98031;-84
2024/03/26 08:30:29;;;;;;;28.67;26.35;;;;;;;35.50;15.61;99056.41;5018901;27;97580;-83
2024/03/26 08:32:54;;;;;;;24.98;22.67;;;;;;;36.61;14.92;99040.22;5035945;27;96783;-84
2024/03/26 08:35:20;;;;;;;12.93;8.90;;;;;;;36.99;14.59;99052.16;5002855;27;96944;-84
2024/03/26 08:37:46;;;;;;;10.30;8.73;;;;;;;38.57;13.63;99041.81;5018410;27;101705;-84
2024/03/26 08:40:12;;;;;;;10.40;8.75;;;;;;;39.68;12.78;99020.50;5037554;27;97307;-84
2024/03/26 08:42:38;;;;;;;11.15;9.50;;;;;;;39.08;13.34;99042.06;5022055;27;96518;-83
2024/03/26 08:45:06;;;;;;;12.38;8.70;;;;;;;37.79;13.91;99038.81;5005761;27;96792;-85
2024/03/26 08:47:35;;;;;;;11.50;9.52;;;;;;;38.32;13.87;99033.44;5022305;27;97806;-84
2024/03/26 08:50:00;;;;;;;;;;;;;;;39.96;12.83;99026.56;5022788;27;97778;-85
2024/03/26 08:52:26;;;;;;;10.32;9.23;;;;;;;41.43;12.09;99013.38;5021654;27;96625;-85
2024/03/26 08:54:51;;;;;;;12.23;9.00;;;;;;;39.58;12.50;99024.06;5022270;27;96888;-86
2024/03/26 08:57:17;;;;;;;9.75;8.75;;;;;;;40.89;12.46;99014.22;5022354;27;97693;-83
2024/03/26 08:59:44;;;;;;;10.30;8.15;;;;;;;39.49;12.46;99011.97;5022049;27;101093;-88
2024/03/26 09:02:09;;;;;;;10.98;8.63;;;;;;;40.68;12.51;99008.00;5023501;27;96774;-86
2024/03/26 09:04:38;;;;;;;9.75;8.85;;;;;;;37.05;13.59;99020.28;5007496;28;96931;-88
2024/03/26 09:07:03;;;;;;;10.55;9.45;;;;;;;34.46;15.39;99002.78;4985398;28;101673;-88
2024/03/26 09:09:29;;;;;;;10.02;8.98;;;;;;;36.33;14.07;99011.09;4985993;28;100495;-88
2024/03/26 09:11:55;;;;;;;10.85;9.75;;;;;;;36.78;14.14;99004.63;4986469;28;96804;-88
2024/03/26 09:14:21;;;;;;;9.50;8.52;;;;;;;37.62;13.65;99011.56;5003162;28;96795;-87
2024/03/26 09:16:46;;;;;;;8.82;7.57;;;;;;;37.24;13.94;98990.66;5001907;28;101134;-87
2024/03/26 09:19:15;;;;;;;9.40;8.40;;;;;;;34.46;15.44;99000.06;5002234;28;101585;-86
2024/03/26 09:21:42;;;;;;;8.70;7.75;;;;;;;36.31;14.65;98980.50;4985449;28;96566;-87
2024/03/26 09:24:08;;;;;;;9.52;8.45;;;;;;;39.27;13.26;98993.00;4984909;28;96946;-88
2024/03/26 09:26:33;;;;;;;9.18;8.15;;;;;;;36.55;14.15;99022.09;5001240;28;97963;-87
2024/03/26 09:28:59;;;;;;;15.48;9.02;;;;;;;36.28;14.54;98997.41;5001021;28;101626;-85
2024/03/26 09:31:24;;;;;;;9.45;7.93;;;;;;;33.97;15.57;98999.47;5000232;28;97498;-84
2024/03/26 09:33:50;;;;;;;10.18;7.82;;;;;;;37.01;13.99;99000.00;5001957;28;96769;-85
2024/03/26 09:36:15;;;;;;;11.70;8.00;;;;;;;38.74;12.78;98995.03;5001530;28;100898;-82
2024/03/26 09:38:41;;;;;;;10.02;7.50;;;;;;;33.42;15.33;98992.38;5001463;28;101405;-79
2024/03/26 09:41:10;;;;;;;10.02;7.95;;;;;;;37.30;13.72;98970.47;5018351;28;96608;-81
2024/03/26 09:43:36;;;;;;;10.27;8.13;;;;;;;39.30;12.98;98965.06;5018278;28;96926;-83
2024/03/26 09:46:02;;;;;;;12.57;7.80;;;;;;;36.92;14.33;98975.00;4984538;28;101360;-81
2024/03/26 09:48:28;;;;;;;12.43;7.45;;;;;;;35.75;14.59;98969.56;5001531;28;101441;-81
2024/03/26 09:50:56;;;;;;;8.25;7.07;;;;;;;34.06;15.16;98967.31;5017768;28;96647;-81
2024/03/26 09:53:23;;;;;;;7.57;6.78;;;;;;;34.82;15.04;98960.81;5001575;28;96852;-81
2024/03/26 09:55:49;;;;;;;11.43;7.22;;;;;;;33.68;15.60;98950.34;5001056;28;97505;-81
2024/03/26 09:58:15;;;;;;;9.70;6.85;;;;;;;32.65;16.57;98960.41;5018270;28;97822;-81
2024/03/26 10:00:51;;;;;;;9.85;6.82;;;;;;;32.01;17.29;98951.72;5001242;28;96549;-80
2024/03/26 10:03:20;;;;;;;10.10;6.45;;;;;;;29.48;18.68;98943.84;5001171;28;96907;-81
2024/03/26 10:05:47;;;;;;;7.15;6.45;;;;;;;26.44;21.69;98936.16;5000817;28;101365;-82
2024/03/26 10:08:12;;;;;;;7.90;5.78;;;;;;;25.68;22.78;98924.72;5017473;28;101256;-81
2024/03/26 10:10:41;;;;;;;10.20;7.25;;;;;;;22.64;25.87;98925.84;5001205;28;96707;-80
2024/03/26 10:13:10;;;;;;;8.07;6.07;;;;;;;20.84;28.42;98957.47;5018433;28;96828;-81
2024/03/26 10:15:39;;;;;;;6.75;5.65;;;;;;;19.39;29.45;98938.34;5001226;28;101571;-81
2024/03/26 10:18:06;;;;;;;8.80;5.78;;;;;;;18.44;31.22;98943.41;5017506;28;97277;-81
2024/03/26 10:20:31;;;;;;;11.50;6.00;;;;;;;17.74;32.39;98923.78;5017494;28;96603;-79
2024/03/26 10:23:01;;;;;;;11.52;5.85;;;;;;;17.32;33.19;98929.97;5000822;28;96830;-79
2024/03/26 10:25:27;;;;;;;6.68;4.75;;;;;;;17.43;33.15;98908.69;5000714;28;101473;-80
2024/03/26 10:27:53;;;;;;;6.75;4.53;;;;;;;16.86;33.12;98919.69;5000209;28;100677;-79
2024/03/26 10:30:18;;;;;;;5.85;4.40;;;;;;;16.36;33.29;98929.91;5000647;28;96582;-82
2024/03/26 10:32:44;;;;;;;7.57;5.82;;;;;;;16.27;33.91;98934.13;5001454;28;96868;-81
2024/03/26 10:35:10;;;;;;;5.78;3.97;;;;;;;16.17;33.64;98918.09;5000563;28;101573;-81
2024/03/26 10:37:37;;;;;;;8.38;4.25;;;;;;;16.20;32.92;98917.88;5000678;28;100971;-83
2024/03/26 10:40:09;;;;;;;7.03;3.80;;;;;;;15.45;33.95;98907.00;5001045;28;96593;-81
2024/03/26 10:42:44;;;;;;;6.47;4.15;;;;;;;15.35;34.08;98910.31;5000784;28;96604;-81
2024/03/26 10:45:09;;;;;;;10.18;4.13;;;;;;;15.58;33.92;98905.91;5000554;28;97598;-81
2024/03/26 10:47:37;;;;;;;5.80;3.97;;;;;;;15.84;34.27;98889.84;5017229;28;97336;-82
2024/03/26 10:50:02;;;;;;;6.00;4.13;;;;;;;15.61;34.39;98886.31;5000480;28;96624;-81
2024/03/26 10:52:28;;;;;;;7.57;4.47;;;;;;;15.56;35.02;98867.31;5017582;28;96909;-80
2024/03/26 10:54:58;;;;;;;4.75;3.83;;;;;;;15.47;35.07;98900.59;5000192;28;100866;-80
2024/03/26 10:57:25;;;;;;;7.38;3.63;;;;;;;15.38;35.27;98890.72;5017515;28;96634;-81
2024/03/26 10:59:50;;;;;;;6.65;3.78;;;;;;;15.27;35.47;98874.84;5000404;28;96584;-80
2024/03/26 11:02:17;;;;;;;6.93;4.03;;;;;;;14.81;35.71;98879.16;5016580;28;96857;-80
2024/03/26 11:04:43;;;;;;;8.70;3.95;;;;;;;15.06;36.15;98886.09;5016920;27;97452;-81
2024/03/26 11:07:09;;;;;;;6.10;4.30;;;;;;;15.03;35.58;98877.56;5002910;27;101497;-80
2024/03/26 11:09:34;;;;;;;4.65;3.55;;;;;;;15.19;36.35;98858.75;5036994;27;96965;-82
2024/03/26 11:12:00;;;;;;;5.78;3.97;;;;;;;15.11;36.54;98869.88;5020147;27;96829;-80
2024/03/26 11:14:28;;;;;;;7.70;4.32;;;;;;;14.84;36.75;98884.22;5055151;27;97908;-80